createdAt,value
2022-11-04T00:02:44.246Z,24.10
2022-11-04T00:06:08.148Z,24.76
2022-11-04T00:09:35.810Z,24.56
2022-11-04T00:12:54.733Z,23.76
2022-11-04T00:16:31.176Z,24.86
2022-11-04T00:20:13.139Z,23.74
2022-11-04T00:23:56.167Z,24.84
2022-11-04T00:27:38.146Z,24.74
2022-11-04T00:31:02.193Z,24.52
2022-11-04T00:34:25.182Z,24.99
2022-11-04T00:37:52.250Z,25.27
2022-11-04T00:41:34.174Z,25.80
2022-11-04T00:44:58.235Z,24.97
2022-11-04T00:48:22.166Z,25.03
2022-11-04T00:51:46.268Z,24.36
2022-11-04T00:55:10.189Z,24.15
2022-11-04T00:58:34.230Z,24.50
2022-11-04T01:01:58.394Z,25.33
2022-11-04T01:05:22.297Z,24.13
2022-11-04T01:08:46.264Z,24.86
2022-11-04T01:12:10.296Z,24.90
2022-11-04T01:15:35.344Z,25.36
2022-11-04T01:18:59.351Z,25.17
2022-11-04T01:22:23.332Z,24.46
2022-11-04T01:25:47.280Z,24.62
2022-11-04T01:29:12.355Z,24.66
2022-11-04T01:32:35.321Z,24.74
2022-11-04T01:35:59.335Z,25.14
2022-11-04T01:39:23.311Z,26.14
2022-11-04T01:42:47.341Z,25.33
2022-11-04T01:46:13.327Z,24.97
2022-11-04T01:49:50.372Z,24.62
2022-11-04T01:53:34.353Z,24.59
2022-11-04T01:56:59.339Z,24.98
2022-11-04T02:00:25.347Z,25.11
2022-11-04T02:03:49.298Z,25.31
2022-11-04T02:07:18.337Z,24.00
2022-11-04T02:10:43.340Z,24.34
2022-11-04T02:14:09.384Z,24.91
2022-11-04T02:17:52.339Z,24.56
2022-11-04T02:21:27.364Z,24.77
2022-11-04T02:25:19.359Z,24.97
2022-11-04T02:28:46.303Z,24.74
2022-11-04T02:32:33.326Z,25.10
2022-11-04T02:36:33.588Z,24.30
2022-11-04T02:40:20.315Z,25.08
2022-11-04T02:44:16.339Z,23.98
2022-11-04T02:47:43.338Z,24.55
2022-11-04T02:51:18.314Z,24.16
2022-11-04T02:54:51.398Z,24.06
2022-11-04T02:58:16.329Z,24.38
2022-11-04T03:01:43.236Z,24.68
2022-11-04T03:05:01.345Z,24.51
2022-11-04T03:08:31.360Z,24.46
2022-11-04T03:11:57.321Z,24.25
2022-11-04T03:15:24.367Z,23.81
2022-11-04T03:18:49.310Z,24.12
2022-11-04T03:22:32.374Z,24.03
2022-11-04T03:26:04.290Z,24.57
2022-11-04T03:29:40.641Z,24.14
2022-11-04T03:33:17.345Z,24.10
2022-11-04T03:36:41.342Z,23.47
2022-11-04T03:40:05.263Z,23.69
2022-11-04T03:43:38.703Z,23.69
2022-11-04T03:47:04.312Z,23.09
2022-11-04T03:50:36.295Z,23.66
2022-11-04T03:54:00.297Z,23.37
2022-11-04T03:57:36.651Z,23.91
2022-11-04T04:01:07.329Z,23.47
2022-11-04T04:05:00.271Z,23.25
2022-11-04T04:08:51.322Z,24.17
2022-11-04T04:12:40.265Z,23.34
2022-11-04T04:16:08.311Z,23.40
2022-11-04T04:19:35.286Z,23.77
2022-11-04T04:23:37.311Z,23.63
2022-11-04T04:27:18.286Z,23.60
2022-11-04T04:30:42.288Z,23.00
2022-11-04T04:34:05.318Z,23.18
2022-11-04T04:37:37.271Z,23.11
2022-11-04T04:41:46.317Z,22.56
2022-11-04T04:45:14.311Z,21.52
2022-11-04T04:48:38.291Z,22.12
2022-11-04T04:52:03.339Z,21.93
2022-11-04T04:55:28.302Z,21.93
2022-11-04T04:58:52.358Z,22.26
2022-11-04T05:02:18.974Z,21.82
2022-11-04T05:05:43.317Z,21.64
2022-11-04T05:09:08.321Z,21.76
2022-11-04T05:12:32.313Z,21.22
2022-11-04T05:15:56.310Z,21.41
2022-11-04T05:19:20.314Z,21.58
2022-11-04T05:22:44.318Z,21.65
2022-11-04T05:26:08.309Z,21.33
2022-11-04T05:29:33.317Z,21.62
2022-11-04T05:33:00.043Z,20.95
2022-11-04T05:36:30.343Z,21.16
2022-11-04T05:39:53.319Z,21.09
2022-11-04T05:43:18.392Z,20.79
2022-11-04T05:46:43.325Z,21.21
2022-11-04T05:50:08.320Z,20.85
2022-11-04T05:53:31.306Z,20.35
2022-11-04T05:56:55.349Z,20.13
2022-11-04T06:00:19.327Z,20.08
2022-11-04T06:03:43.400Z,19.56
2022-11-04T06:07:07.371Z,19.74
2022-11-04T06:10:33.398Z,20.02
2022-11-04T06:13:57.381Z,19.75
2022-11-04T06:17:21.346Z,19.83
2022-11-04T06:20:45.351Z,19.69
2022-11-04T06:24:10.364Z,19.04
2022-11-04T06:27:34.387Z,19.03
2022-11-04T06:30:59.361Z,18.85
2022-11-04T06:34:24.355Z,18.51
2022-11-04T06:37:48.334Z,18.32
2022-11-04T06:41:13.352Z,18.40
2022-11-04T06:44:36.333Z,18.36
2022-11-04T06:48:00.346Z,18.12
2022-11-04T06:51:24.542Z,17.98
2022-11-04T06:54:48.316Z,18.12
2022-11-04T06:58:13.380Z,18.06
2022-11-04T07:01:39.493Z,18.15
2022-11-04T07:05:02.359Z,17.67
2022-11-04T07:08:26.357Z,17.53
2022-11-04T07:11:50.403Z,17.50
2022-11-04T07:15:08.374Z,17.33
2022-11-04T07:18:33.416Z,17.26
2022-11-04T07:21:50.983Z,17.27
2022-11-04T07:25:08.381Z,17.32
2022-11-04T07:28:33.409Z,17.17
2022-11-04T07:31:59.363Z,16.90
2022-11-04T07:35:23.401Z,16.83
2022-11-04T07:38:47.367Z,16.81
2022-11-04T07:42:11.402Z,16.70
2022-11-04T07:45:43.378Z,16.56
2022-11-04T07:49:06.439Z,16.73
2022-11-04T07:52:30.398Z,16.57
2022-11-04T07:55:57.400Z,16.52
2022-11-04T07:59:21.484Z,16.64
2022-11-04T08:02:45.399Z,16.27
2022-11-04T08:06:14.387Z,16.37
2022-11-04T08:09:37.390Z,16.37
2022-11-04T08:13:00.393Z,16.38
2022-11-04T08:16:34.170Z,16.28
2022-11-04T08:19:59.031Z,16.30
2022-11-04T08:23:24.407Z,16.26
2022-11-04T08:26:48.380Z,16.26
2022-11-04T08:30:12.432Z,16.31
2022-11-04T08:33:39.413Z,16.19
2022-11-04T08:37:05.418Z,16.10
2022-11-04T08:40:29.407Z,16.16
2022-11-04T08:43:53.424Z,16.15
2022-11-04T08:47:18.421Z,16.10
2022-11-04T08:50:42.458Z,16.03
2022-11-04T08:54:05.385Z,15.84
2022-11-04T08:57:29.454Z,15.88
2022-11-04T09:00:54.016Z,15.81
2022-11-04T09:04:18.440Z,15.83
2022-11-04T09:07:43.420Z,15.54
2022-11-04T09:11:07.403Z,15.80
2022-11-04T09:14:31.397Z,15.68
2022-11-04T09:17:56.436Z,15.69
2022-11-04T09:21:14.992Z,15.55
2022-11-04T09:24:32.424Z,15.44
2022-11-04T09:27:57.765Z,15.50
2022-11-04T09:31:27.429Z,15.56
2022-11-04T09:34:50.411Z,15.74
2022-11-04T09:38:15.510Z,15.41
2022-11-04T09:41:52.473Z,15.44
2022-11-04T09:45:22.139Z,15.37
2022-11-04T09:48:54.454Z,15.36
2022-11-04T09:52:31.473Z,15.34
2022-11-04T09:56:15.481Z,15.07
2022-11-04T09:59:44.440Z,15.24
2022-11-04T10:03:17.434Z,15.39
2022-11-04T10:06:57.458Z,15.32
2022-11-04T10:10:39.403Z,15.24
2022-11-04T10:14:34.245Z,15.42
2022-11-04T10:18:46.434Z,15.34
2022-11-04T10:22:24.483Z,15.13
2022-11-04T10:25:53.443Z,15.21
2022-11-04T10:29:20.456Z,15.19
2022-11-04T10:33:08.755Z,14.63
2022-11-04T10:36:33.437Z,14.80
2022-11-04T10:40:00.465Z,14.77
2022-11-04T10:43:27.439Z,14.79
2022-11-04T10:47:24.423Z,14.60
2022-11-04T10:50:54.479Z,14.61
2022-11-04T10:54:23.466Z,14.65
2022-11-04T10:57:46.438Z,14.51
2022-11-04T11:01:14.904Z,14.50
2022-11-04T11:04:48.490Z,14.60
2022-11-04T11:08:12.455Z,14.59
2022-11-04T11:12:29.799Z,14.50
2022-11-04T11:15:52.534Z,14.36
2022-11-04T11:19:29.435Z,14.10
2022-11-04T11:23:04.614Z,14.25
2022-11-04T11:26:35.098Z,14.14
2022-11-04T11:30:04.560Z,13.97
2022-11-04T11:33:36.437Z,14.25
2022-11-04T11:37:00.504Z,14.04
2022-11-04T11:41:03.505Z,14.03
2022-11-04T11:45:18.501Z,14.12
2022-11-04T11:48:58.478Z,13.98
2022-11-04T11:52:46.477Z,13.90
2022-11-04T11:56:21.496Z,13.79
2022-11-04T12:11:54.470Z,13.72
2022-11-04T12:15:40.502Z,13.61
2022-11-04T12:19:28.481Z,13.72
2022-11-04T12:22:59.652Z,13.59
2022-11-04T12:26:23.084Z,13.46
2022-11-04T12:30:24.048Z,13.80
2022-11-04T12:34:02.416Z,13.49
2022-11-04T12:37:40.515Z,13.62
2022-11-04T12:41:52.766Z,13.78
2022-11-04T12:45:22.480Z,13.73
2022-11-04T12:49:31.511Z,13.93
2022-11-04T12:53:09.790Z,14.03
2022-11-04T12:56:35.542Z,13.75
2022-11-04T12:59:59.500Z,13.83
2022-11-04T13:03:29.616Z,13.88
2022-11-04T13:07:08.495Z,13.92
2022-11-04T13:10:40.533Z,13.97
2022-11-04T13:14:06.507Z,13.95
2022-11-04T13:17:39.515Z,14.03
2022-11-04T13:21:11.527Z,13.53
2022-11-04T13:24:46.475Z,13.27
2022-11-04T13:28:12.103Z,13.23
2022-11-04T13:31:43.477Z,13.17
2022-11-04T13:35:31.621Z,13.34
2022-11-04T13:39:00.133Z,13.32
2022-11-04T13:42:52.554Z,13.45
2022-11-04T13:46:16.536Z,13.59
2022-11-04T13:49:44.529Z,13.52
2022-11-04T13:53:07.806Z,13.68
2022-11-04T13:56:45.258Z,13.73
2022-11-04T14:00:35.902Z,13.83
2022-11-04T14:04:28.499Z,13.82
2022-11-04T14:08:16.557Z,13.85
2022-11-04T14:11:40.523Z,13.62
2022-11-04T14:15:23.529Z,13.67
2022-11-04T14:18:49.558Z,13.82
2022-11-04T14:22:21.532Z,13.91
2022-11-04T14:25:53.550Z,13.96
2022-11-04T14:29:41.018Z,14.03
2022-11-04T14:33:11.862Z,14.04
2022-11-04T14:36:37.555Z,14.10
2022-11-04T14:40:01.573Z,14.12
2022-11-04T14:43:43.532Z,14.14
2022-11-04T14:47:09.548Z,14.11
2022-11-04T14:50:36.540Z,14.10
2022-11-04T14:53:59.571Z,14.17
2022-11-04T14:57:34.590Z,14.24
2022-11-04T15:01:05.495Z,14.28
2022-11-04T15:04:35.221Z,14.21
2022-11-04T15:08:00.558Z,14.03
2022-11-04T15:11:49.577Z,13.96
2022-11-04T15:15:14.585Z,14.08
2022-11-04T15:18:40.538Z,14.09
2022-11-04T15:22:05.577Z,13.98
2022-11-04T15:25:29.542Z,13.90
2022-11-04T15:29:00.561Z,13.75
2022-11-04T15:32:26.137Z,13.67
2022-11-04T15:35:51.593Z,13.50
2022-11-04T15:39:26.564Z,13.51
2022-11-04T15:42:54.606Z,13.57
2022-11-04T15:46:18.593Z,13.66
2022-11-04T15:49:44.611Z,13.65
2022-11-04T15:53:12.478Z,13.63
2022-11-04T15:57:03.609Z,13.81
2022-11-04T16:00:30.573Z,13.73
2022-11-04T16:03:54.610Z,13.62
2022-11-04T16:07:37.577Z,13.86
2022-11-04T16:10:59.694Z,13.83
2022-11-04T16:14:38.601Z,13.65
2022-11-04T16:18:01.574Z,13.59
2022-11-04T16:21:34.596Z,13.74
2022-11-04T16:24:57.592Z,13.59
2022-11-04T16:28:21.553Z,13.54
2022-11-04T16:31:49.594Z,13.59
2022-11-04T16:35:14.227Z,13.50
2022-11-04T16:38:32.608Z,13.46
2022-11-04T16:41:57.619Z,13.40
2022-11-04T16:45:22.587Z,13.30
2022-11-04T16:48:46.621Z,13.30
2022-11-04T16:52:16.566Z,13.32
2022-11-04T16:55:40.638Z,13.22
2022-11-04T16:59:04.585Z,13.21
2022-11-04T17:02:48.644Z,13.11
2022-11-04T17:06:12.568Z,12.95
2022-11-04T17:09:37.612Z,13.01
2022-11-04T17:12:56.747Z,12.87
2022-11-04T17:16:21.598Z,12.86
2022-11-04T17:19:45.724Z,13.01
2022-11-04T17:23:10.894Z,12.74
2022-11-04T17:26:36.600Z,12.68
2022-11-04T17:30:00.586Z,13.10
2022-11-04T17:33:31.972Z,13.05
2022-11-04T17:36:55.628Z,13.53
2022-11-04T17:40:20.599Z,13.74
2022-11-04T17:44:03.687Z,13.88
2022-11-04T17:47:27.643Z,13.94
2022-11-04T17:50:55.614Z,13.92
2022-11-04T17:54:20.529Z,14.09
2022-11-04T17:57:44.623Z,14.44
2022-11-04T18:01:07.698Z,14.61
2022-11-04T18:04:34.643Z,14.92
2022-11-04T18:07:58.814Z,15.27
2022-11-04T18:11:43.636Z,15.51
2022-11-04T18:15:07.657Z,15.76
2022-11-04T18:18:31.643Z,15.89
2022-11-04T18:22:02.628Z,16.04
2022-11-04T18:25:26.628Z,16.06
2022-11-04T18:28:49.633Z,16.16
2022-11-04T18:32:14.651Z,16.29
2022-11-04T18:35:38.623Z,16.43
2022-11-04T18:39:04.036Z,16.71
2022-11-04T18:42:28.032Z,16.77
2022-11-04T18:45:51.655Z,16.84
2022-11-04T18:49:15.657Z,17.17
2022-11-04T18:52:39.696Z,17.22
2022-11-04T18:56:03.636Z,17.33
2022-11-04T18:59:29.671Z,18.14
2022-11-04T19:02:53.615Z,18.02
2022-11-04T19:06:21.764Z,18.33
2022-11-04T19:09:47.065Z,18.51
2022-11-04T19:13:28.755Z,18.06
2022-11-04T19:16:52.641Z,18.31
2022-11-04T19:20:17.664Z,18.43
2022-11-04T19:23:41.642Z,18.93
2022-11-04T19:27:05.307Z,18.30
2022-11-04T19:30:31.287Z,18.71
2022-11-04T19:33:55.683Z,19.27
2022-11-04T19:37:13.271Z,18.33
2022-11-04T19:40:30.667Z,18.78
2022-11-04T19:43:53.640Z,17.89
2022-11-04T19:47:17.689Z,18.17
2022-11-04T19:50:43.291Z,18.65
2022-11-04T19:54:07.705Z,18.37
2022-11-04T19:57:30.671Z,18.97
2022-11-04T20:00:55.760Z,19.22
2022-11-04T20:04:20.688Z,19.58
2022-11-04T20:07:47.325Z,19.16
2022-11-04T20:11:11.694Z,19.50
2022-11-04T20:14:37.207Z,20.03
2022-11-04T20:18:01.682Z,20.67
2022-11-04T20:21:26.795Z,20.42
2022-11-04T20:24:49.669Z,20.57
2022-11-04T20:28:15.706Z,20.18
2022-11-04T20:31:40.684Z,20.92
2022-11-04T20:35:04.692Z,20.68
2022-11-04T20:38:28.696Z,20.87
2022-11-04T20:41:52.687Z,21.23
2022-11-04T20:45:16.681Z,21.26
2022-11-04T20:48:41.704Z,21.44
2022-11-04T20:52:04.714Z,21.56
2022-11-04T20:55:28.694Z,22.28
2022-11-04T20:58:58.786Z,20.80
2022-11-04T21:02:25.858Z,21.81
2022-11-04T21:05:50.776Z,20.62
2022-11-04T21:09:14.721Z,22.12
2022-11-04T21:12:38.703Z,22.49
2022-11-04T21:16:07.065Z,20.47
2022-11-04T21:19:30.705Z,22.00
2022-11-04T21:22:54.720Z,21.48
2022-11-04T21:26:38.699Z,22.48
2022-11-04T21:30:02.741Z,21.35
2022-11-04T21:33:26.687Z,21.53
2022-11-04T21:36:50.742Z,21.17
2022-11-04T21:40:14.731Z,21.26
2022-11-04T21:43:38.383Z,21.16
2022-11-04T21:47:05.732Z,22.15
2022-11-04T21:50:28.784Z,21.86
2022-11-04T21:53:52.752Z,21.40
2022-11-04T21:57:16.703Z,20.89
2022-11-04T22:00:40.766Z,20.49
2022-11-04T22:04:07.709Z,20.61
2022-11-04T22:07:51.753Z,20.80
2022-11-04T22:11:26.841Z,21.61
2022-11-04T22:14:50.756Z,22.77
2022-11-04T22:18:14.741Z,22.34
2022-11-04T22:21:39.717Z,22.87
2022-11-04T22:25:12.732Z,21.03
2022-11-04T22:28:36.734Z,20.96
2022-11-04T22:32:00.762Z,21.00
2022-11-04T22:35:24.772Z,21.58
2022-11-04T22:38:43.372Z,21.65
2022-11-04T22:42:01.753Z,21.53
2022-11-04T22:45:25.721Z,21.40
2022-11-04T22:48:50.762Z,20.98
2022-11-04T22:52:14.718Z,20.88
2022-11-04T22:55:39.726Z,20.67
2022-11-04T22:59:03.721Z,20.70
2022-11-04T23:02:29.021Z,20.80
2022-11-04T23:05:54.804Z,21.62
2022-11-04T23:09:20.789Z,21.81
2022-11-04T23:13:02.801Z,21.26
2022-11-04T23:16:45.729Z,21.57
2022-11-04T23:20:10.791Z,23.20
2022-11-04T23:23:52.790Z,22.06
2022-11-04T23:27:15.768Z,22.63
2022-11-04T23:30:40.820Z,23.25
2022-11-04T23:34:21.764Z,23.43
2022-11-04T23:37:38.781Z,23.86
2022-11-04T23:41:20.875Z,24.16
2022-11-04T23:45:01.753Z,23.99
2022-11-04T23:48:45.788Z,22.96
2022-11-04T23:52:28.786Z,23.17
2022-11-04T23:56:10.886Z,24.24
2022-11-04T23:59:52.755Z,23.73
